Allenton, Wisconsin
Current Conditions -  °F | °C
As of 5:15 PM on Tuesday 25 Nov 2014 (Local Time) from KETB Reporting Station
Overcast Overcast  
Wind Chill: 11°   Ceiling: 1400
Heat Index: 21°   Visibility: 10mi
Dew Point: 16°   Wind: 9mph
Humidity: 80%   Direction: 240°WSW
Pressure: 30.11"   Gusts: NA
Location:  43.42°N, 88.34°W
Report Text: KETB 252315Z AUTO 24008KT 10SM OVC014 M06/M09 A3011 RMK AO2
Loading
Personal Weather Stations






























Interactive Weather Map New forecast layout! Learn more

10-Day Weather Forecast

Advertisements
Track Severe Weather on mobile